sensor_id;sensor_type;location;lat;lon;timestamp;P1;durP1;ratioP1;P2;durP2;ratioP2
71606;SDS011;60641;53.556;9.914;2022-08-21T00:02:14;9.10;;;2.30;;
71606;SDS011;60641;53.556;9.914;2022-08-21T00:04:42;6.70;;;2.10;;
71606;SDS011;60641;53.556;9.914;2022-08-21T00:07:08;8.10;;;2.60;;
71606;SDS011;60641;53.556;9.914;2022-08-21T00:09:35;8.00;;;2.30;;
71606;SDS011;60641;53.556;9.914;2022-08-21T00:12:02;7.10;;;2.20;;
71606;SDS011;60641;53.556;9.914;2022-08-21T00:14:29;6.90;;;2.40;;
71606;SDS011;60641;53.556;9.914;2022-08-21T00:16:55;6.80;;;2.30;;
71606;SDS011;60641;53.556;9.914;2022-08-21T00:19:22;7.50;;;2.20;;
71606;SDS011;60641;53.556;9.914;2022-08-21T00:21:51;8.50;;;2.40;;
71606;SDS011;60641;53.556;9.914;2022-08-21T00:24:19;6.80;;;2.30;;
71606;SDS011;60641;53.556;9.914;2022-08-21T00:26:46;8.00;;;2.50;;
71606;SDS011;60641;53.556;9.914;2022-08-21T00:29:13;7.10;;;2.20;;
71606;SDS011;60641;53.556;9.914;2022-08-21T00:31:40;8.70;;;2.60;;
71606;SDS011;60641;53.556;9.914;2022-08-21T00:34:07;7.90;;;2.30;;
71606;SDS011;60641;53.556;9.914;2022-08-21T00:36:34;9.30;;;2.60;;
71606;SDS011;60641;53.556;9.914;2022-08-21T00:39:01;8.30;;;2.60;;
71606;SDS011;60641;53.556;9.914;2022-08-21T00:41:28;6.50;;;2.30;;
71606;SDS011;60641;53.556;9.914;2022-08-21T00:43:55;6.40;;;2.10;;
71606;SDS011;60641;53.556;9.914;2022-08-21T00:46:22;7.50;;;2.40;;
71606;SDS011;60641;53.556;9.914;2022-08-21T00:48:48;9.40;;;2.50;;
71606;SDS011;60641;53.556;9.914;2022-08-21T00:51:58;6.90;;;2.20;;
71606;SDS011;60641;53.556;9.914;2022-08-21T00:54:13;8.20;;;2.30;;
71606;SDS011;60641;53.556;9.914;2022-08-21T00:56:41;8.50;;;2.30;;
71606;SDS011;60641;53.556;9.914;2022-08-21T00:59:07;8.50;;;2.20;;
71606;SDS011;60641;53.556;9.914;2022-08-21T01:50:45;7.10;;;2.20;;
71606;SDS011;60641;53.556;9.914;2022-08-21T01:53:12;8.30;;;2.20;;
71606;SDS011;60641;53.556;9.914;2022-08-21T01:55:41;9.00;;;2.40;;
71606;SDS011;60641;53.556;9.914;2022-08-21T01:58:08;7.90;;;2.20;;
71606;SDS011;60641;53.556;9.914;2022-08-21T02:00:35;8.20;;;2.40;;
71606;SDS011;60641;53.556;9.914;2022-08-21T02:03:02;6.70;;;1.70;;
71606;SDS011;60641;53.556;9.914;2022-08-21T02:05:28;5.50;;;2.00;;
71606;SDS011;60641;53.556;9.914;2022-08-21T02:07:55;8.00;;;1.90;;
71606;SDS011;60641;53.556;9.914;2022-08-21T02:10:23;8.10;;;2.20;;
71606;SDS011;60641;53.556;9.914;2022-08-21T02:12:52;7.40;;;2.10;;
71606;SDS011;60641;53.556;9.914;2022-08-21T02:15:19;7.80;;;2.00;;
71606;SDS011;60641;53.556;9.914;2022-08-21T02:17:50;8.00;;;2.00;;
71606;SDS011;60641;53.556;9.914;2022-08-21T02:20:30;8.10;;;2.20;;
71606;SDS011;60641;53.556;9.914;2022-08-21T02:22:58;5.80;;;1.80;;
71606;SDS011;60641;53.556;9.914;2022-08-21T02:25:26;7.50;;;2.00;;
71606;SDS011;60641;53.556;9.914;2022-08-21T02:27:53;7.60;;;1.90;;
71606;SDS011;60641;53.556;9.914;2022-08-21T02:30:22;6.30;;;2.10;;
71606;SDS011;60641;53.556;9.914;2022-08-21T02:32:50;7.40;;;2.00;;
71606;SDS011;60641;53.556;9.914;2022-08-21T02:35:17;8.90;;;2.10;;
71606;SDS011;60641;53.556;9.914;2022-08-21T02:40:20;9.30;;;1.90;;
71606;SDS011;60641;53.556;9.914;2022-08-21T02:42:48;10.30;;;2.10;;
71606;SDS011;60641;53.556;9.914;2022-08-21T02:45:15;6.40;;;1.80;;
71606;SDS011;60641;53.556;9.914;2022-08-21T02:47:47;7.60;;;2.00;;
71606;SDS011;60641;53.556;9.914;2022-08-21T02:50:31;6.60;;;1.80;;
71606;SDS011;60641;53.556;9.914;2022-08-21T02:53:03;6.40;;;1.70;;
71606;SDS011;60641;53.556;9.914;2022-08-21T02:55:30;6.90;;;1.90;;
71606;SDS011;60641;53.556;9.914;2022-08-21T02:57:57;6.90;;;1.70;;
71606;SDS011;60641;53.556;9.914;2022-08-21T03:00:25;7.70;;;1.90;;
71606;SDS011;60641;53.556;9.914;2022-08-21T03:02:53;9.40;;;2.00;;
71606;SDS011;60641;53.556;9.914;2022-08-21T03:05:22;7.60;;;2.00;;
71606;SDS011;60641;53.556;9.914;2022-08-21T03:07:49;6.60;;;1.90;;
71606;SDS011;60641;53.556;9.914;2022-08-21T03:10:18;6.50;;;2.10;;
71606;SDS011;60641;53.556;9.914;2022-08-21T03:12:46;8.30;;;2.20;;
71606;SDS011;60641;53.556;9.914;2022-08-21T03:15:14;6.80;;;1.80;;
71606;SDS011;60641;53.556;9.914;2022-08-21T03:17:43;7.80;;;1.80;;
71606;SDS011;60641;53.556;9.914;2022-08-21T03:20:10;6.50;;;2.10;;
71606;SDS011;60641;53.556;9.914;2022-08-21T03:22:37;9.60;;;2.00;;
71606;SDS011;60641;53.556;9.914;2022-08-21T03:25:03;6.40;;;1.90;;
71606;SDS011;60641;53.556;9.914;2022-08-21T03:27:30;6.60;;;1.80;;
71606;SDS011;60641;53.556;9.914;2022-08-21T03:29:57;7.90;;;1.50;;
71606;SDS011;60641;53.556;9.914;2022-08-21T03:32:23;6.10;;;1.60;;
71606;SDS011;60641;53.556;9.914;2022-08-21T03:34:50;5.80;;;1.70;;
71606;SDS011;60641;53.556;9.914;2022-08-21T03:37:16;6.70;;;2.00;;
71606;SDS011;60641;53.556;9.914;2022-08-21T03:39:43;7.00;;;1.80;;
71606;SDS011;60641;53.556;9.914;2022-08-21T03:42:11;6.50;;;1.70;;
71606;SDS011;60641;53.556;9.914;2022-08-21T03:44:38;7.00;;;1.90;;
71606;SDS011;60641;53.556;9.914;2022-08-21T03:47:05;7.90;;;2.00;;
71606;SDS011;60641;53.556;9.914;2022-08-21T03:49:32;7.60;;;1.90;;
71606;SDS011;60641;53.556;9.914;2022-08-21T03:51:59;6.60;;;1.70;;
71606;SDS011;60641;53.556;9.914;2022-08-21T03:54:26;5.30;;;1.50;;
71606;SDS011;60641;53.556;9.914;2022-08-21T03:56:52;7.70;;;2.00;;
71606;SDS011;60641;53.556;9.914;2022-08-21T03:59:19;6.40;;;1.90;;
71606;SDS011;60641;53.556;9.914;2022-08-21T04:01:55;7.70;;;1.90;;
71606;SDS011;60641;53.556;9.914;2022-08-21T04:04:24;8.60;;;2.10;;
71606;SDS011;60641;53.556;9.914;2022-08-21T04:06:51;6.10;;;1.80;;
71606;SDS011;60641;53.556;9.914;2022-08-21T04:09:18;4.90;;;1.70;;
71606;SDS011;60641;53.556;9.914;2022-08-21T04:11:45;7.90;;;1.60;;
71606;SDS011;60641;53.556;9.914;2022-08-21T04:14:13;5.20;;;1.90;;
71606;SDS011;60641;53.556;9.914;2022-08-21T04:16:40;6.60;;;1.80;;
71606;SDS011;60641;53.556;9.914;2022-08-21T04:19:08;7.10;;;1.80;;
71606;SDS011;60641;53.556;9.914;2022-08-21T04:21:36;9.40;;;2.00;;
71606;SDS011;60641;53.556;9.914;2022-08-21T04:24:03;7.30;;;1.80;;
71606;SDS011;60641;53.556;9.914;2022-08-21T04:26:31;5.70;;;1.60;;
71606;SDS011;60641;53.556;9.914;2022-08-21T04:28:58;7.60;;;2.00;;
71606;SDS011;60641;53.556;9.914;2022-08-21T04:31:24;5.70;;;1.70;;
71606;SDS011;60641;53.556;9.914;2022-08-21T04:33:51;6.50;;;1.80;;
71606;SDS011;60641;53.556;9.914;2022-08-21T04:36:17;7.40;;;1.90;;
71606;SDS011;60641;53.556;9.914;2022-08-21T04:38:44;7.20;;;2.20;;
71606;SDS011;60641;53.556;9.914;2022-08-21T04:41:10;6.90;;;1.80;;
71606;SDS011;60641;53.556;9.914;2022-08-21T04:43:37;8.10;;;1.70;;
71606;SDS011;60641;53.556;9.914;2022-08-21T04:46:04;8.80;;;2.30;;
71606;SDS011;60641;53.556;9.914;2022-08-21T04:48:31;7.60;;;1.90;;
71606;SDS011;60641;53.556;9.914;2022-08-21T04:53:26;6.00;;;1.90;;
71606;SDS011;60641;53.556;9.914;2022-08-21T04:55:57;8.10;;;2.20;;
71606;SDS011;60641;53.556;9.914;2022-08-21T04:58:30;6.60;;;1.80;;
71606;SDS011;60641;53.556;9.914;2022-08-21T05:00:58;8.60;;;2.20;;
71606;SDS011;60641;53.556;9.914;2022-08-21T05:03:26;7.20;;;1.90;;
71606;SDS011;60641;53.556;9.914;2022-08-21T05:05:53;8.20;;;2.00;;
71606;SDS011;60641;53.556;9.914;2022-08-21T05:08:21;8.60;;;2.00;;
71606;SDS011;60641;53.556;9.914;2022-08-21T05:10:49;7.00;;;1.80;;
71606;SDS011;60641;53.556;9.914;2022-08-21T05:13:16;9.30;;;2.30;;
71606;SDS011;60641;53.556;9.914;2022-08-21T05:15:43;8.00;;;2.20;;
71606;SDS011;60641;53.556;9.914;2022-08-21T05:18:10;7.40;;;2.30;;
71606;SDS011;60641;53.556;9.914;2022-08-21T05:20:36;7.50;;;1.80;;
71606;SDS011;60641;53.556;9.914;2022-08-21T05:23:07;8.40;;;2.10;;
71606;SDS011;60641;53.556;9.914;2022-08-21T05:25:34;8.80;;;2.10;;
71606;SDS011;60641;53.556;9.914;2022-08-21T05:28:01;8.20;;;2.10;;
71606;SDS011;60641;53.556;9.914;2022-08-21T05:30:28;7.90;;;1.80;;
71606;SDS011;60641;53.556;9.914;2022-08-21T05:32:58;5.50;;;1.80;;
71606;SDS011;60641;53.556;9.914;2022-08-21T05:35:25;5.60;;;2.00;;
71606;SDS011;60641;53.556;9.914;2022-08-21T05:37:52;12.80;;;3.20;;
71606;SDS011;60641;53.556;9.914;2022-08-21T05:40:19;14.80;;;8.30;;
71606;SDS011;60641;53.556;9.914;2022-08-21T05:42:45;16.90;;;10.00;;
71606;SDS011;60641;53.556;9.914;2022-08-21T05:45:12;15.40;;;5.50;;
71606;SDS011;60641;53.556;9.914;2022-08-21T05:47:38;11.00;;;4.60;;
71606;SDS011;60641;53.556;9.914;2022-08-21T05:50:06;19.40;;;4.60;;
71606;SDS011;60641;53.556;9.914;2022-08-21T05:52:32;9.90;;;2.90;;
71606;SDS011;60641;53.556;9.914;2022-08-21T05:54:59;10.50;;;2.90;;
71606;SDS011;60641;53.556;9.914;2022-08-21T05:57:25;10.70;;;4.10;;
71606;SDS011;60641;53.556;9.914;2022-08-21T05:59:52;10.10;;;2.70;;
71606;SDS011;60641;53.556;9.914;2022-08-21T06:02:19;9.40;;;2.90;;
71606;SDS011;60641;53.556;9.914;2022-08-21T06:04:46;10.10;;;3.60;;
71606;SDS011;60641;53.556;9.914;2022-08-21T06:07:14;11.60;;;5.80;;
71606;SDS011;60641;53.556;9.914;2022-08-21T06:09:41;9.80;;;3.10;;
71606;SDS011;60641;53.556;9.914;2022-08-21T06:12:09;11.10;;;3.50;;
71606;SDS011;60641;53.556;9.914;2022-08-21T06:14:38;11.10;;;3.70;;
71606;SDS011;60641;53.556;9.914;2022-08-21T06:17:06;8.30;;;2.80;;
71606;SDS011;60641;53.556;9.914;2022-08-21T06:19:34;7.90;;;2.80;;
71606;SDS011;60641;53.556;9.914;2022-08-21T06:22:01;10.20;;;3.10;;
71606;SDS011;60641;53.556;9.914;2022-08-21T06:24:29;8.80;;;3.10;;
71606;SDS011;60641;53.556;9.914;2022-08-21T06:26:58;10.50;;;2.80;;
71606;SDS011;60641;53.556;9.914;2022-08-21T06:29:24;9.60;;;2.30;;
71606;SDS011;60641;53.556;9.914;2022-08-21T06:31:51;8.90;;;2.40;;
71606;SDS011;60641;53.556;9.914;2022-08-21T06:34:17;8.40;;;2.90;;
71606;SDS011;60641;53.556;9.914;2022-08-21T06:36:44;11.00;;;5.10;;
71606;SDS011;60641;53.556;9.914;2022-08-21T06:39:10;6.90;;;2.00;;
71606;SDS011;60641;53.556;9.914;2022-08-21T06:41:37;6.90;;;1.70;;
71606;SDS011;60641;53.556;9.914;2022-08-21T06:44:03;7.70;;;1.80;;
71606;SDS011;60641;53.556;9.914;2022-08-21T06:46:30;4.30;;;1.30;;
71606;SDS011;60641;53.556;9.914;2022-08-21T06:48:57;5.60;;;1.60;;
71606;SDS011;60641;53.556;9.914;2022-08-21T06:51:24;6.10;;;1.50;;
71606;SDS011;60641;53.556;9.914;2022-08-21T06:53:52;8.60;;;2.20;;
71606;SDS011;60641;53.556;9.914;2022-08-21T06:56:19;9.10;;;2.20;;
71606;SDS011;60641;53.556;9.914;2022-08-21T06:58:46;6.60;;;1.70;;
71606;SDS011;60641;53.556;9.914;2022-08-21T07:01:12;6.80;;;1.80;;
71606;SDS011;60641;53.556;9.914;2022-08-21T07:03:40;6.40;;;1.80;;
71606;SDS011;60641;53.556;9.914;2022-08-21T07:06:08;9.30;;;2.10;;
71606;SDS011;60641;53.556;9.914;2022-08-21T07:08:36;7.40;;;1.70;;
71606;SDS011;60641;53.556;9.914;2022-08-21T07:11:04;7.70;;;1.60;;
71606;SDS011;60641;53.556;9.914;2022-08-21T07:13:35;7.90;;;1.90;;
71606;SDS011;60641;53.556;9.914;2022-08-21T07:16:02;8.00;;;2.90;;
71606;SDS011;60641;53.556;9.914;2022-08-21T07:18:29;8.50;;;1.90;;
71606;SDS011;60641;53.556;9.914;2022-08-21T07:20:56;7.30;;;1.80;;
71606;SDS011;60641;53.556;9.914;2022-08-21T07:23:24;9.40;;;2.30;;
71606;SDS011;60641;53.556;9.914;2022-08-21T07:25:53;9.20;;;2.30;;
71606;SDS011;60641;53.556;9.914;2022-08-21T07:28:20;7.30;;;2.50;;
71606;SDS011;60641;53.556;9.914;2022-08-21T07:30:50;8.50;;;2.20;;
71606;SDS011;60641;53.556;9.914;2022-08-21T07:33:18;9.30;;;2.30;;
71606;SDS011;60641;53.556;9.914;2022-08-21T07:35:44;9.30;;;2.20;;
71606;SDS011;60641;53.556;9.914;2022-08-21T07:38:11;7.60;;;2.10;;
71606;SDS011;60641;53.556;9.914;2022-08-21T07:40:38;9.50;;;2.30;;
71606;SDS011;60641;53.556;9.914;2022-08-21T07:43:05;10.60;;;2.20;;
71606;SDS011;60641;53.556;9.914;2022-08-21T07:45:31;8.50;;;2.30;;
71606;SDS011;60641;53.556;9.914;2022-08-21T07:47:58;9.70;;;2.20;;
71606;SDS011;60641;53.556;9.914;2022-08-21T07:50:24;9.40;;;2.60;;
71606;SDS011;60641;53.556;9.914;2022-08-21T07:52:51;8.40;;;2.60;;
71606;SDS011;60641;53.556;9.914;2022-08-21T07:55:19;9.30;;;2.70;;
71606;SDS011;60641;53.556;9.914;2022-08-21T07:57:46;8.60;;;2.80;;
71606;SDS011;60641;53.556;9.914;2022-08-21T08:00:17;7.20;;;2.30;;
71606;SDS011;60641;53.556;9.914;2022-08-21T08:02:48;8.10;;;1.70;;
71606;SDS011;60641;53.556;9.914;2022-08-21T08:05:18;9.00;;;2.30;;
71606;SDS011;60641;53.556;9.914;2022-08-21T08:07:45;9.70;;;1.90;;
71606;SDS011;60641;53.556;9.914;2022-08-21T08:10:13;8.20;;;2.10;;
71606;SDS011;60641;53.556;9.914;2022-08-21T08:12:40;13.00;;;2.70;;
71606;SDS011;60641;53.556;9.914;2022-08-21T08:15:09;5.80;;;1.60;;
71606;SDS011;60641;53.556;9.914;2022-08-21T08:17:38;8.60;;;1.80;;
71606;SDS011;60641;53.556;9.914;2022-08-21T08:20:05;8.10;;;1.90;;
71606;SDS011;60641;53.556;9.914;2022-08-21T08:22:34;7.10;;;1.70;;
71606;SDS011;60641;53.556;9.914;2022-08-21T08:25:01;7.90;;;1.70;;
71606;SDS011;60641;53.556;9.914;2022-08-21T08:27:28;10.50;;;1.80;;
71606;SDS011;60641;53.556;9.914;2022-08-21T08:29:55;9.20;;;1.70;;
71606;SDS011;60641;53.556;9.914;2022-08-21T08:32:21;8.70;;;1.60;;
71606;SDS011;60641;53.556;9.914;2022-08-21T08:34:49;7.50;;;1.90;;
71606;SDS011;60641;53.556;9.914;2022-08-21T08:37:18;9.30;;;2.10;;
71606;SDS011;60641;53.556;9.914;2022-08-21T08:39:46;8.90;;;1.90;;
71606;SDS011;60641;53.556;9.914;2022-08-21T08:44:40;8.10;;;2.00;;
71606;SDS011;60641;53.556;9.914;2022-08-21T08:47:08;8.30;;;2.10;;
71606;SDS011;60641;53.556;9.914;2022-08-21T08:49:41;9.20;;;2.50;;
71606;SDS011;60641;53.556;9.914;2022-08-21T08:52:20;11.00;;;3.60;;
71606;SDS011;60641;53.556;9.914;2022-08-21T08:55:00;7.80;;;2.40;;
71606;SDS011;60641;53.556;9.914;2022-08-21T08:57:30;10.80;;;2.50;;
71606;SDS011;60641;53.556;9.914;2022-08-21T08:59:59;8.60;;;2.10;;
71606;SDS011;60641;53.556;9.914;2022-08-21T09:02:30;7.50;;;2.10;;
71606;SDS011;60641;53.556;9.914;2022-08-21T09:04:57;8.50;;;1.90;;
71606;SDS011;60641;53.556;9.914;2022-08-21T09:10:22;10.70;;;2.10;;
71606;SDS011;60641;53.556;9.914;2022-08-21T09:12:56;9.90;;;2.20;;
71606;SDS011;60641;53.556;9.914;2022-08-21T09:27:31;10.50;;;1.70;;
71606;SDS011;60641;53.556;9.914;2022-08-21T09:29:45;10.70;;;2.00;;
71606;SDS011;60641;53.556;9.914;2022-08-21T09:32:20;10.70;;;2.10;;
71606;SDS011;60641;53.556;9.914;2022-08-21T09:37:50;9.30;;;2.90;;
71606;SDS011;60641;53.556;9.914;2022-08-21T09:43:01;8.90;;;2.10;;
71606;SDS011;60641;53.556;9.914;2022-08-21T09:45:33;7.90;;;1.80;;
71606;SDS011;60641;53.556;9.914;2022-08-21T09:48:13;8.30;;;2.10;;
71606;SDS011;60641;53.556;9.914;2022-08-21T09:50:45;7.20;;;1.90;;
71606;SDS011;60641;53.556;9.914;2022-08-21T09:53:21;7.70;;;2.30;;
71606;SDS011;60641;53.556;9.914;2022-08-21T09:58:48;11.80;;;2.20;;
71606;SDS011;60641;53.556;9.914;2022-08-21T10:01:24;6.60;;;1.80;;
71606;SDS011;60641;53.556;9.914;2022-08-21T10:04:04;12.60;;;2.80;;
71606;SDS011;60641;53.556;9.914;2022-08-21T10:06:33;7.70;;;2.00;;
71606;SDS011;60641;53.556;9.914;2022-08-21T10:09:05;6.90;;;1.90;;
71606;SDS011;60641;53.556;9.914;2022-08-21T10:11:34;12.30;;;2.20;;
71606;SDS011;60641;53.556;9.914;2022-08-21T10:41:22;7.60;;;1.90;;
71606;SDS011;60641;53.556;9.914;2022-08-21T10:44:21;9.30;;;1.80;;
71606;SDS011;60641;53.556;9.914;2022-08-21T10:55:19;9.10;;;1.90;;
71606;SDS011;60641;53.556;9.914;2022-08-21T10:57:49;6.20;;;1.70;;
71606;SDS011;60641;53.556;9.914;2022-08-21T11:00:19;6.70;;;1.70;;
71606;SDS011;60641;53.556;9.914;2022-08-21T11:05:46;5.70;;;1.70;;
71606;SDS011;60641;53.556;9.914;2022-08-21T11:11:25;6.50;;;1.90;;
71606;SDS011;60641;53.556;9.914;2022-08-21T11:14:18;6.40;;;1.90;;
71606;SDS011;60641;53.556;9.914;2022-08-21T11:16:53;6.10;;;2.00;;
71606;SDS011;60641;53.556;9.914;2022-08-21T11:19:28;5.30;;;1.60;;
71606;SDS011;60641;53.556;9.914;2022-08-21T11:27:38;7.30;;;1.70;;
71606;SDS011;60641;53.556;9.914;2022-08-21T11:30:10;5.80;;;1.60;;
71606;SDS011;60641;53.556;9.914;2022-08-21T11:38:03;5.60;;;1.70;;
71606;SDS011;60641;53.556;9.914;2022-08-21T11:40:41;6.10;;;1.60;;
71606;SDS011;60641;53.556;9.914;2022-08-21T11:43:16;6.50;;;1.70;;
71606;SDS011;60641;53.556;9.914;2022-08-21T11:45:49;6.30;;;1.70;;
71606;SDS011;60641;53.556;9.914;2022-08-21T11:51:07;6.90;;;1.70;;
71606;SDS011;60641;53.556;9.914;2022-08-21T11:53:39;35.60;;;8.60;;
71606;SDS011;60641;53.556;9.914;2022-08-21T11:56:26;11.80;;;3.40;;
71606;SDS011;60641;53.556;9.914;2022-08-21T11:59:02;7.30;;;2.20;;
71606;SDS011;60641;53.556;9.914;2022-08-21T12:01:33;7.00;;;2.30;;
71606;SDS011;60641;53.556;9.914;2022-08-21T12:04:46;7.20;;;2.30;;
71606;SDS011;60641;53.556;9.914;2022-08-21T12:06:55;7.50;;;2.10;;
71606;SDS011;60641;53.556;9.914;2022-08-21T12:12:00;7.30;;;2.10;;
71606;SDS011;60641;53.556;9.914;2022-08-21T12:14:37;8.60;;;2.70;;
71606;SDS011;60641;53.556;9.914;2022-08-21T12:17:16;7.70;;;2.00;;
71606;SDS011;60641;53.556;9.914;2022-08-21T12:19:59;6.50;;;1.70;;
71606;SDS011;60641;53.556;9.914;2022-08-21T12:22:37;10.40;;;1.90;;
71606;SDS011;60641;53.556;9.914;2022-08-21T12:25:10;5.60;;;1.90;;
71606;SDS011;60641;53.556;9.914;2022-08-21T12:28:26;7.70;;;2.10;;
71606;SDS011;60641;53.556;9.914;2022-08-21T12:30:34;6.10;;;1.70;;
71606;SDS011;60641;53.556;9.914;2022-08-21T12:33:05;6.50;;;1.60;;
71606;SDS011;60641;53.556;9.914;2022-08-21T12:35:44;4.10;;;1.60;;
71606;SDS011;60641;53.556;9.914;2022-08-21T12:38:26;5.70;;;1.60;;
71606;SDS011;60641;53.556;9.914;2022-08-21T12:41:05;6.00;;;1.50;;
71606;SDS011;60641;53.556;9.914;2022-08-21T12:46:17;6.10;;;1.50;;
71606;SDS011;60641;53.556;9.914;2022-08-21T12:48:57;6.50;;;1.60;;
71606;SDS011;60641;53.556;9.914;2022-08-21T12:51:30;4.50;;;1.60;;
71606;SDS011;60641;53.556;9.914;2022-08-21T12:53:59;6.00;;;1.60;;
71606;SDS011;60641;53.556;9.914;2022-08-21T12:56:27;6.30;;;1.60;;
71606;SDS011;60641;53.556;9.914;2022-08-21T12:58:59;4.50;;;1.00;;
71606;SDS011;60641;53.556;9.914;2022-08-21T13:01:35;9.70;;;1.50;;
71606;SDS011;60641;53.556;9.914;2022-08-21T13:04:10;8.10;;;1.90;;
71606;SDS011;60641;53.556;9.914;2022-08-21T13:06:39;6.70;;;1.80;;
71606;SDS011;60641;53.556;9.914;2022-08-21T13:09:10;6.10;;;1.50;;
71606;SDS011;60641;53.556;9.914;2022-08-21T13:11:39;7.10;;;1.60;;
71606;SDS011;60641;53.556;9.914;2022-08-21T13:14:06;5.10;;;1.50;;
71606;SDS011;60641;53.556;9.914;2022-08-21T13:16:40;5.40;;;1.50;;
71606;SDS011;60641;53.556;9.914;2022-08-21T13:19:07;5.20;;;1.20;;
71606;SDS011;60641;53.556;9.914;2022-08-21T13:21:38;7.20;;;1.70;;
71606;SDS011;60641;53.556;9.914;2022-08-21T13:24:16;5.20;;;1.50;;
71606;SDS011;60641;53.556;9.914;2022-08-21T13:26:47;4.50;;;1.40;;
71606;SDS011;60641;53.556;9.914;2022-08-21T13:29:16;4.50;;;1.30;;
71606;SDS011;60641;53.556;9.914;2022-08-21T13:31:51;3.90;;;1.20;;
71606;SDS011;60641;53.556;9.914;2022-08-21T13:34:23;7.10;;;1.30;;
71606;SDS011;60641;53.556;9.914;2022-08-21T13:36:52;4.90;;;1.20;;
71606;SDS011;60641;53.556;9.914;2022-08-21T13:39:24;3.50;;;1.10;;
71606;SDS011;60641;53.556;9.914;2022-08-21T13:41:51;5.00;;;1.40;;
71606;SDS011;60641;53.556;9.914;2022-08-21T13:44:22;6.70;;;1.70;;
71606;SDS011;60641;53.556;9.914;2022-08-21T13:46:52;4.50;;;1.40;;
71606;SDS011;60641;53.556;9.914;2022-08-21T13:49:21;5.20;;;1.40;;
71606;SDS011;60641;53.556;9.914;2022-08-21T13:51:56;6.20;;;1.40;;
71606;SDS011;60641;53.556;9.914;2022-08-21T13:54:26;7.20;;;1.40;;
71606;SDS011;60641;53.556;9.914;2022-08-21T13:56:56;5.80;;;1.20;;
71606;SDS011;60641;53.556;9.914;2022-08-21T13:59:23;3.70;;;1.30;;
71606;SDS011;60641;53.556;9.914;2022-08-21T14:01:52;5.00;;;1.30;;
71606;SDS011;60641;53.556;9.914;2022-08-21T14:04:32;5.10;;;1.30;;
71606;SDS011;60641;53.556;9.914;2022-08-21T14:07:02;6.20;;;1.30;;
71606;SDS011;60641;53.556;9.914;2022-08-21T14:09:31;6.20;;;1.60;;
71606;SDS011;60641;53.556;9.914;2022-08-21T14:12:00;4.90;;;1.30;;
71606;SDS011;60641;53.556;9.914;2022-08-21T14:14:31;4.70;;;1.30;;
71606;SDS011;60641;53.556;9.914;2022-08-21T14:17:00;4.80;;;1.20;;
71606;SDS011;60641;53.556;9.914;2022-08-21T14:24:58;5.20;;;1.40;;
71606;SDS011;60641;53.556;9.914;2022-08-21T14:27:28;7.30;;;1.40;;
71606;SDS011;60641;53.556;9.914;2022-08-21T14:30:00;4.90;;;1.30;;
71606;SDS011;60641;53.556;9.914;2022-08-21T14:32:37;4.90;;;1.30;;
71606;SDS011;60641;53.556;9.914;2022-08-21T14:35:05;4.70;;;1.10;;
71606;SDS011;60641;53.556;9.914;2022-08-21T14:37:32;5.40;;;1.20;;
71606;SDS011;60641;53.556;9.914;2022-08-21T14:39:59;4.90;;;1.30;;
71606;SDS011;60641;53.556;9.914;2022-08-21T14:42:25;6.10;;;1.30;;
71606;SDS011;60641;53.556;9.914;2022-08-21T14:44:51;5.50;;;1.40;;
71606;SDS011;60641;53.556;9.914;2022-08-21T14:47:20;3.50;;;1.20;;
71606;SDS011;60641;53.556;9.914;2022-08-21T14:49:46;5.00;;;1.40;;
71606;SDS011;60641;53.556;9.914;2022-08-21T14:52:12;5.30;;;1.40;;
71606;SDS011;60641;53.556;9.914;2022-08-21T14:54:39;4.30;;;1.40;;
71606;SDS011;60641;53.556;9.914;2022-08-21T14:57:06;4.80;;;1.30;;
71606;SDS011;60641;53.556;9.914;2022-08-21T14:59:35;4.00;;;1.30;;
71606;SDS011;60641;53.556;9.914;2022-08-21T15:02:03;6.10;;;1.40;;
71606;SDS011;60641;53.556;9.914;2022-08-21T15:04:31;6.00;;;1.50;;
71606;SDS011;60641;53.556;9.914;2022-08-21T15:06:58;5.20;;;1.20;;
71606;SDS011;60641;53.556;9.914;2022-08-21T15:09:25;5.70;;;1.40;;
71606;SDS011;60641;53.556;9.914;2022-08-21T15:11:55;4.50;;;1.30;;
71606;SDS011;60641;53.556;9.914;2022-08-21T15:14:23;6.70;;;1.40;;
71606;SDS011;60641;53.556;9.914;2022-08-21T15:16:52;7.70;;;1.30;;
71606;SDS011;60641;53.556;9.914;2022-08-21T15:19:18;5.20;;;1.30;;
71606;SDS011;60641;53.556;9.914;2022-08-21T15:21:45;6.80;;;1.60;;
71606;SDS011;60641;53.556;9.914;2022-08-21T15:24:11;4.40;;;1.50;;
71606;SDS011;60641;53.556;9.914;2022-08-21T15:26:38;5.60;;;1.30;;
71606;SDS011;60641;53.556;9.914;2022-08-21T15:29:06;4.10;;;1.20;;
71606;SDS011;60641;53.556;9.914;2022-08-21T15:31:34;7.50;;;1.10;;
71606;SDS011;60641;53.556;9.914;2022-08-21T15:34:01;4.20;;;1.20;;
71606;SDS011;60641;53.556;9.914;2022-08-21T15:36:28;6.10;;;1.60;;
71606;SDS011;60641;53.556;9.914;2022-08-21T15:38:55;6.70;;;1.80;;
71606;SDS011;60641;53.556;9.914;2022-08-21T15:41:21;8.50;;;2.30;;
71606;SDS011;60641;53.556;9.914;2022-08-21T15:43:49;4.20;;;1.40;;
71606;SDS011;60641;53.556;9.914;2022-08-21T15:46:17;6.70;;;1.30;;
71606;SDS011;60641;53.556;9.914;2022-08-21T15:48:45;8.30;;;1.30;;
71606;SDS011;60641;53.556;9.914;2022-08-21T15:51:13;11.00;;;1.80;;
71606;SDS011;60641;53.556;9.914;2022-08-21T15:53:40;5.30;;;1.40;;
71606;SDS011;60641;53.556;9.914;2022-08-21T15:56:20;7.10;;;1.60;;
71606;SDS011;60641;53.556;9.914;2022-08-21T15:58:54;7.30;;;1.60;;
71606;SDS011;60641;53.556;9.914;2022-08-21T16:01:25;7.00;;;2.60;;
71606;SDS011;60641;53.556;9.914;2022-08-21T16:03:52;4.40;;;1.70;;
71606;SDS011;60641;53.556;9.914;2022-08-21T16:06:20;5.10;;;1.70;;
71606;SDS011;60641;53.556;9.914;2022-08-21T16:08:47;5.30;;;1.40;;
71606;SDS011;60641;53.556;9.914;2022-08-21T16:11:13;4.80;;;1.30;;
71606;SDS011;60641;53.556;9.914;2022-08-21T16:13:41;4.20;;;1.30;;
71606;SDS011;60641;53.556;9.914;2022-08-21T16:16:10;8.90;;;1.80;;
71606;SDS011;60641;53.556;9.914;2022-08-21T16:18:38;4.00;;;1.40;;
71606;SDS011;60641;53.556;9.914;2022-08-21T16:21:05;6.50;;;1.60;;
71606;SDS011;60641;53.556;9.914;2022-08-21T16:23:33;8.70;;;1.50;;
71606;SDS011;60641;53.556;9.914;2022-08-21T16:26:04;5.50;;;1.40;;
71606;SDS011;60641;53.556;9.914;2022-08-21T16:28:31;7.90;;;1.50;;
71606;SDS011;60641;53.556;9.914;2022-08-21T16:30:59;4.30;;;1.20;;
71606;SDS011;60641;53.556;9.914;2022-08-21T16:36:25;6.20;;;1.60;;
71606;SDS011;60641;53.556;9.914;2022-08-21T16:38:53;3.70;;;1.50;;
71606;SDS011;60641;53.556;9.914;2022-08-21T16:41:21;5.70;;;1.50;;
71606;SDS011;60641;53.556;9.914;2022-08-21T16:43:49;6.00;;;1.60;;
71606;SDS011;60641;53.556;9.914;2022-08-21T16:46:16;5.80;;;1.50;;
71606;SDS011;60641;53.556;9.914;2022-08-21T16:48:44;5.60;;;1.20;;
71606;SDS011;60641;53.556;9.914;2022-08-21T16:51:11;5.90;;;1.40;;
71606;SDS011;60641;53.556;9.914;2022-08-21T16:53:38;5.90;;;1.40;;
71606;SDS011;60641;53.556;9.914;2022-08-21T16:56:05;5.60;;;1.70;;
71606;SDS011;60641;53.556;9.914;2022-08-21T16:58:33;7.70;;;1.50;;
71606;SDS011;60641;53.556;9.914;2022-08-21T17:01:05;4.80;;;1.30;;
71606;SDS011;60641;53.556;9.914;2022-08-21T17:03:38;8.20;;;1.50;;
71606;SDS011;60641;53.556;9.914;2022-08-21T17:06:07;7.60;;;1.50;;
71606;SDS011;60641;53.556;9.914;2022-08-21T17:08:34;6.10;;;1.40;;
71606;SDS011;60641;53.556;9.914;2022-08-21T17:11:01;4.80;;;1.50;;
71606;SDS011;60641;53.556;9.914;2022-08-21T17:13:28;9.60;;;1.50;;
71606;SDS011;60641;53.556;9.914;2022-08-21T17:15:55;6.80;;;1.40;;
71606;SDS011;60641;53.556;9.914;2022-08-21T17:18:22;7.70;;;1.30;;
71606;SDS011;60641;53.556;9.914;2022-08-21T17:20:49;8.20;;;1.50;;
71606;SDS011;60641;53.556;9.914;2022-08-21T17:23:16;6.00;;;1.60;;
71606;SDS011;60641;53.556;9.914;2022-08-21T17:25:48;7.00;;;1.70;;
71606;SDS011;60641;53.556;9.914;2022-08-21T17:28:21;6.90;;;1.60;;